sensor_id;sensor_type;location;lat;lon;timestamp;pressure;altitude;pressure_sealevel;temperature;humidity
17593;BME280;8915;51.760;14.300;2023-07-09T00:01:40;101384.03;;;19.03;56.84
17593;BME280;8915;51.760;14.300;2023-07-09T00:04:09;101371.34;;;19.00;57.76
17593;BME280;8915;51.760;14.300;2023-07-09T00:06:36;101367.88;;;18.96;57.86
17593;BME280;8915;51.760;14.300;2023-07-09T00:09:03;101360.91;;;18.92;57.53
17593;BME280;8915;51.760;14.300;2023-07-09T00:11:30;101376.53;;;18.86;57.39
17593;BME280;8915;51.760;14.300;2023-07-09T00:13:57;101374.91;;;18.82;58.01
17593;BME280;8915;51.760;14.300;2023-07-09T00:16:25;101367.19;;;18.77;57.81
17593;BME280;8915;51.760;14.300;2023-07-09T00:18:51;101366.41;;;18.73;58.68
17593;BME280;8915;51.760;14.300;2023-07-09T00:21:21;101364.38;;;18.66;57.97
17593;BME280;8915;51.760;14.300;2023-07-09T00:23:47;101368.91;;;18.62;58.10
17593;BME280;8915;51.760;14.300;2023-07-09T00:26:15;101368.06;;;18.58;58.65
17593;BME280;8915;51.760;14.300;2023-07-09T00:28:43;101366.50;;;18.54;58.79
17593;BME280;8915;51.760;14.300;2023-07-09T00:31:11;101367.59;;;18.49;58.04
17593;BME280;8915;51.760;14.300;2023-07-09T00:33:39;101361.41;;;18.45;58.08
17593;BME280;8915;51.760;14.300;2023-07-09T00:36:11;101357.09;;;18.41;57.91
17593;BME280;8915;51.760;14.300;2023-07-09T00:38:41;101352.84;;;18.36;57.08
17593;BME280;8915;51.760;14.300;2023-07-09T00:41:15;101355.88;;;18.35;56.79
17593;BME280;8915;51.760;14.300;2023-07-09T00:43:43;101353.56;;;18.33;55.67
17593;BME280;8915;51.760;14.300;2023-07-09T00:46:16;101354.69;;;18.32;55.81
17593;BME280;8915;51.760;14.300;2023-07-09T00:48:43;101359.69;;;18.34;57.75
17593;BME280;8915;51.760;14.300;2023-07-09T00:51:12;101355.47;;;18.33;57.95
17593;BME280;8915;51.760;14.300;2023-07-09T00:53:43;101365.72;;;18.31;57.17
17593;BME280;8915;51.760;14.300;2023-07-09T00:56:13;101361.88;;;18.28;55.58
17593;BME280;8915;51.760;14.300;2023-07-09T00:58:42;101354.19;;;18.27;54.47
17593;BME280;8915;51.760;14.300;2023-07-09T01:01:13;101353.06;;;18.28;53.82
17593;BME280;8915;51.760;14.300;2023-07-09T01:03:45;101349.69;;;18.31;53.32
17593;BME280;8915;51.760;14.300;2023-07-09T01:06:15;101354.69;;;18.32;54.25
17593;BME280;8915;51.760;14.300;2023-07-09T01:08:45;101351.66;;;18.34;55.13
17593;BME280;8915;51.760;14.300;2023-07-09T01:11:21;101345.19;;;18.35;56.17
17593;BME280;8915;51.760;14.300;2023-07-09T01:13:49;101344.06;;;18.36;58.27
17593;BME280;8915;51.760;14.300;2023-07-09T01:16:16;101355.13;;;18.34;56.36
17593;BME280;8915;51.760;14.300;2023-07-09T01:18:43;101358.16;;;18.33;57.75
17593;BME280;8915;51.760;14.300;2023-07-09T01:21:11;101361.94;;;18.32;58.74
17593;BME280;8915;51.760;14.300;2023-07-09T01:23:40;101363.41;;;18.29;60.05
17593;BME280;8915;51.760;14.300;2023-07-09T01:26:10;101358.75;;;18.26;60.21
17593;BME280;8915;51.760;14.300;2023-07-09T01:28:37;101359.50;;;18.23;60.69
17593;BME280;8915;51.760;14.300;2023-07-09T01:31:07;101363.22;;;18.19;60.86
17593;BME280;8915;51.760;14.300;2023-07-09T01:33:33;101360.09;;;18.13;60.89
17593;BME280;8915;51.760;14.300;2023-07-09T01:36:00;101374.84;;;18.07;60.44
17593;BME280;8915;51.760;14.300;2023-07-09T01:38:28;101362.56;;;18.03;60.85
17593;BME280;8915;51.760;14.300;2023-07-09T01:40:56;101361.72;;;17.99;61.03
17593;BME280;8915;51.760;14.300;2023-07-09T01:43:22;101369.69;;;17.95;61.92
17593;BME280;8915;51.760;14.300;2023-07-09T01:45:50;101372.31;;;17.92;62.49
17593;BME280;8915;51.760;14.300;2023-07-09T01:48:17;101368.78;;;17.88;62.49
17593;BME280;8915;51.760;14.300;2023-07-09T01:50:45;101362.25;;;17.85;63.71
17593;BME280;8915;51.760;14.300;2023-07-09T01:53:17;101369.88;;;17.83;63.27
17593;BME280;8915;51.760;14.300;2023-07-09T01:55:46;101374.72;;;17.78;62.81
17593;BME280;8915;51.760;14.300;2023-07-09T01:58:13;101367.78;;;17.73;62.79
17593;BME280;8915;51.760;14.300;2023-07-09T02:00:41;101373.06;;;17.70;64.04
17593;BME280;8915;51.760;14.300;2023-07-09T02:03:09;101375.66;;;17.66;64.00
17593;BME280;8915;51.760;14.300;2023-07-09T02:05:35;101369.81;;;17.61;63.35
17593;BME280;8915;51.760;14.300;2023-07-09T02:08:02;101368.97;;;17.57;63.73
17593;BME280;8915;51.760;14.300;2023-07-09T02:10:30;101376.59;;;17.55;64.94
17593;BME280;8915;51.760;14.300;2023-07-09T02:12:59;101375.31;;;17.49;64.72
17593;BME280;8915;51.760;14.300;2023-07-09T02:15:26;101375.94;;;17.42;64.60
17593;BME280;8915;51.760;14.300;2023-07-09T02:17:53;101383.09;;;17.38;65.63
17593;BME280;8915;51.760;14.300;2023-07-09T02:20:19;101375.00;;;17.35;65.88
17593;BME280;8915;51.760;14.300;2023-07-09T02:22:47;101379.50;;;17.31;66.30
17593;BME280;8915;51.760;14.300;2023-07-09T02:25:14;101369.88;;;17.26;66.21
17593;BME280;8915;51.760;14.300;2023-07-09T02:27:40;101374.38;;;17.22;66.19
17593;BME280;8915;51.760;14.300;2023-07-09T02:30:08;101381.84;;;17.17;65.78
17593;BME280;8915;51.760;14.300;2023-07-09T02:32:36;101384.84;;;17.12;66.60
17593;BME280;8915;51.760;14.300;2023-07-09T02:35:04;101393.88;;;17.07;67.01
17593;BME280;8915;51.760;14.300;2023-07-09T02:37:30;101394.47;;;17.01;67.36
17593;BME280;8915;51.760;14.300;2023-07-09T02:39:58;101397.41;;;16.96;67.41
17593;BME280;8915;51.760;14.300;2023-07-09T02:42:25;101389.25;;;16.89;67.27
17593;BME280;8915;51.760;14.300;2023-07-09T02:44:51;101394.44;;;16.82;67.52
17593;BME280;8915;51.760;14.300;2023-07-09T02:47:19;101394.28;;;16.75;67.21
17593;BME280;8915;51.760;14.300;2023-07-09T02:49:46;101393.44;;;16.71;67.66
17593;BME280;8915;51.760;14.300;2023-07-09T02:52:12;101392.91;;;16.65;67.66
17593;BME280;8915;51.760;14.300;2023-07-09T02:54:39;101393.19;;;16.60;68.21
17593;BME280;8915;51.760;14.300;2023-07-09T02:57:05;101393.09;;;16.57;68.54
17593;BME280;8915;51.760;14.300;2023-07-09T02:59:32;101392.25;;;16.53;69.08
17593;BME280;8915;51.760;14.300;2023-07-09T03:02:00;101387.63;;;16.50;68.86
17593;BME280;8915;51.760;14.300;2023-07-09T03:04:28;101385.97;;;16.45;68.86
17593;BME280;8915;51.760;14.300;2023-07-09T03:06:56;101397.75;;;16.44;68.99
17593;BME280;8915;51.760;14.300;2023-07-09T03:09:23;101401.09;;;16.41;69.03
17593;BME280;8915;51.760;14.300;2023-07-09T03:11:49;101402.56;;;16.39;69.08
17593;BME280;8915;51.760;14.300;2023-07-09T03:14:15;101395.22;;;16.36;69.45
17593;BME280;8915;51.760;14.300;2023-07-09T03:16:42;101403.22;;;16.36;69.68
17593;BME280;8915;51.760;14.300;2023-07-09T03:19:08;101399.34;;;16.33;70.02
17593;BME280;8915;51.760;14.300;2023-07-09T03:21:36;101414.56;;;16.33;70.00
17593;BME280;8915;51.760;14.300;2023-07-09T03:24:03;101413.34;;;16.30;70.14
17593;BME280;8915;51.760;14.300;2023-07-09T03:26:29;101416.34;;;16.29;69.94
17593;BME280;8915;51.760;14.300;2023-07-09T03:28:56;101413.34;;;16.30;70.38
17593;BME280;8915;51.760;14.300;2023-07-09T03:31:22;101418.69;;;16.30;70.56
17593;BME280;8915;51.760;14.300;2023-07-09T03:33:50;101416.47;;;16.32;70.43
17593;BME280;8915;51.760;14.300;2023-07-09T03:36:18;101419.56;;;16.34;70.79
17593;BME280;8915;51.760;14.300;2023-07-09T03:38:46;101420.75;;;16.37;70.87
17593;BME280;8915;51.760;14.300;2023-07-09T03:41:13;101422.31;;;16.38;70.73
17593;BME280;8915;51.760;14.300;2023-07-09T03:43:39;101420.13;;;16.40;70.49
17593;BME280;8915;51.760;14.300;2023-07-09T03:46:05;101421.75;;;16.44;70.73
17593;BME280;8915;51.760;14.300;2023-07-09T03:48:32;101424.50;;;16.48;70.49
17593;BME280;8915;51.760;14.300;2023-07-09T03:50:58;101431.91;;;16.54;70.69
17593;BME280;8915;51.760;14.300;2023-07-09T03:53:24;101424.31;;;16.56;70.42
17593;BME280;8915;51.760;14.300;2023-07-09T03:55:53;101423.72;;;16.63;70.32
17593;BME280;8915;51.760;14.300;2023-07-09T03:58:20;101426.53;;;16.70;70.53
17593;BME280;8915;51.760;14.300;2023-07-09T04:00:47;101424.75;;;16.74;69.72
17593;BME280;8915;51.760;14.300;2023-07-09T04:03:13;101415.28;;;16.76;67.94
17593;BME280;8915;51.760;14.300;2023-07-09T04:05:40;101422.66;;;16.83;68.30
17593;BME280;8915;51.760;14.300;2023-07-09T04:08:06;101423.53;;;16.87;66.46
17593;BME280;8915;51.760;14.300;2023-07-09T04:10:32;101416.81;;;16.93;66.36
17593;BME280;8915;51.760;14.300;2023-07-09T04:13:00;101423.41;;;16.99;65.37
17593;BME280;8915;51.760;14.300;2023-07-09T04:15:27;101418.22;;;17.06;65.41
17593;BME280;8915;51.760;14.300;2023-07-09T04:17:53;101418.06;;;17.14;65.03
17593;BME280;8915;51.760;14.300;2023-07-09T04:20:19;101418.59;;;17.23;65.14
17593;BME280;8915;51.760;14.300;2023-07-09T04:22:46;101422.28;;;17.34;66.62
17593;BME280;8915;51.760;14.300;2023-07-09T04:25:12;101423.66;;;17.44;66.60
17593;BME280;8915;51.760;14.300;2023-07-09T04:27:39;101417.78;;;17.54;65.80
17593;BME280;8915;51.760;14.300;2023-07-09T04:30:09;101422.56;;;17.64;64.71
17593;BME280;8915;51.760;14.300;2023-07-09T04:32:36;101423.88;;;17.73;62.54
17593;BME280;8915;51.760;14.300;2023-07-09T04:35:04;101422.59;;;17.86;62.59
17593;BME280;8915;51.760;14.300;2023-07-09T04:37:31;101425.53;;;18.00;64.56
17593;BME280;8915;51.760;14.300;2023-07-09T04:39:57;101423.13;;;18.14;65.49
17593;BME280;8915;51.760;14.300;2023-07-09T04:42:23;101429.81;;;18.27;66.08
17593;BME280;8915;51.760;14.300;2023-07-09T04:44:50;101438.47;;;18.40;65.92
17593;BME280;8915;51.760;14.300;2023-07-09T04:47:17;101443.28;;;18.53;65.65
17593;BME280;8915;51.760;14.300;2023-07-09T04:49:43;101441.97;;;18.66;65.95
17593;BME280;8915;51.760;14.300;2023-07-09T04:52:10;101439.53;;;18.80;65.54
17593;BME280;8915;51.760;14.300;2023-07-09T04:54:39;101440.81;;;18.90;60.51
17593;BME280;8915;51.760;14.300;2023-07-09T04:57:06;101441.44;;;19.06;60.46
17593;BME280;8915;51.760;14.300;2023-07-09T04:59:32;101450.09;;;19.22;59.58
17593;BME280;8915;51.760;14.300;2023-07-09T05:01:59;101436.53;;;19.37;59.26
17593;BME280;8915;51.760;14.300;2023-07-09T05:04:26;101450.53;;;19.53;58.46
17593;BME280;8915;51.760;14.300;2023-07-09T05:06:53;101445.31;;;19.67;58.13
17593;BME280;8915;51.760;14.300;2023-07-09T05:09:19;101452.44;;;19.86;57.77
17593;BME280;8915;51.760;14.300;2023-07-09T05:11:45;101448.38;;;20.02;57.54
17593;BME280;8915;51.760;14.300;2023-07-09T05:14:12;101445.53;;;20.18;55.28
17593;BME280;8915;51.760;14.300;2023-07-09T05:16:38;101442.19;;;20.31;55.31
17593;BME280;8915;51.760;14.300;2023-07-09T05:19:06;101444.22;;;20.45;54.18
17593;BME280;8915;51.760;14.300;2023-07-09T05:21:34;101442.44;;;20.59;53.97
17593;BME280;8915;51.760;14.300;2023-07-09T05:24:01;101447.13;;;20.73;53.06
17593;BME280;8915;51.760;14.300;2023-07-09T05:26:27;101446.06;;;20.84;52.34
17593;BME280;8915;51.760;14.300;2023-07-09T05:28:53;101451.56;;;20.95;52.54
17593;BME280;8915;51.760;14.300;2023-07-09T05:31:21;101450.47;;;21.06;52.70
17593;BME280;8915;51.760;14.300;2023-07-09T05:33:48;101448.59;;;21.17;52.09
17593;BME280;8915;51.760;14.300;2023-07-09T05:36:14;101451.75;;;21.30;52.42
17593;BME280;8915;51.760;14.300;2023-07-09T05:38:42;101453.34;;;21.41;50.92
17593;BME280;8915;51.760;14.300;2023-07-09T05:41:09;101451.09;;;21.50;51.68
17593;BME280;8915;51.760;14.300;2023-07-09T05:43:35;101445.72;;;21.61;51.17
17593;BME280;8915;51.760;14.300;2023-07-09T05:46:01;101464.63;;;21.71;50.32
17593;BME280;8915;51.760;14.300;2023-07-09T05:48:28;101455.44;;;21.79;51.15
17593;BME280;8915;51.760;14.300;2023-07-09T05:50:54;101461.22;;;21.88;50.76
17593;BME280;8915;51.760;14.300;2023-07-09T05:53:21;101450.50;;;21.99;50.21
17593;BME280;8915;51.760;14.300;2023-07-09T05:55:52;101441.28;;;22.07;49.91
17593;BME280;8915;51.760;14.300;2023-07-09T05:58:19;101447.06;;;22.16;50.13
17593;BME280;8915;51.760;14.300;2023-07-09T06:00:45;101445.53;;;22.25;49.65
17593;BME280;8915;51.760;14.300;2023-07-09T06:03:11;101446.31;;;22.36;50.07
17593;BME280;8915;51.760;14.300;2023-07-09T06:05:39;101447.53;;;22.46;49.60
17593;BME280;8915;51.760;14.300;2023-07-09T06:08:05;101441.75;;;22.54;49.20
17593;BME280;8915;51.760;14.300;2023-07-09T06:10:31;101441.72;;;22.65;49.25
17593;BME280;8915;51.760;14.300;2023-07-09T06:12:59;101446.34;;;22.75;48.93
17593;BME280;8915;51.760;14.300;2023-07-09T06:15:25;101443.28;;;22.83;48.55
17593;BME280;8915;51.760;14.300;2023-07-09T06:17:52;101446.31;;;22.92;48.64
17593;BME280;8915;51.760;14.300;2023-07-09T06:20:18;101441.31;;;23.01;48.92
17593;BME280;8915;51.760;14.300;2023-07-09T06:22:45;101439.34;;;23.12;48.48
17593;BME280;8915;51.760;14.300;2023-07-09T06:25:12;101447.84;;;23.22;48.55
17593;BME280;8915;51.760;14.300;2023-07-09T06:27:38;101446.66;;;23.33;47.37
17593;BME280;8915;51.760;14.300;2023-07-09T06:30:07;101450.06;;;23.44;48.00
17593;BME280;8915;51.760;14.300;2023-07-09T06:32:33;101450.41;;;23.53;48.47
17593;BME280;8915;51.760;14.300;2023-07-09T06:35:00;101463.50;;;23.62;47.94
17593;BME280;8915;51.760;14.300;2023-07-09T06:37:26;101455.72;;;23.70;47.89
17593;BME280;8915;51.760;14.300;2023-07-09T06:39:52;101461.84;;;23.78;47.66
17593;BME280;8915;51.760;14.300;2023-07-09T06:42:19;101457.56;;;23.88;47.84
17593;BME280;8915;51.760;14.300;2023-07-09T06:45:10;101465.25;;;24.00;47.57
17593;BME280;8915;51.760;14.300;2023-07-09T06:47:36;101463.25;;;24.07;47.65
17593;BME280;8915;51.760;14.300;2023-07-09T06:50:03;101464.34;;;24.17;45.67
17593;BME280;8915;51.760;14.300;2023-07-09T06:52:29;101468.56;;;24.25;47.09
17593;BME280;8915;51.760;14.300;2023-07-09T06:54:55;101463.06;;;24.35;47.17
17593;BME280;8915;51.760;14.300;2023-07-09T06:57:22;101464.94;;;24.42;46.74
17593;BME280;8915;51.760;14.300;2023-07-09T06:59:48;101467.97;;;24.51;46.95
17593;BME280;8915;51.760;14.300;2023-07-09T07:02:16;101458.66;;;24.59;45.51
17593;BME280;8915;51.760;14.300;2023-07-09T07:04:42;101460.94;;;24.67;45.85
17593;BME280;8915;51.760;14.300;2023-07-09T07:07:09;101467.78;;;24.75;46.24
17593;BME280;8915;51.760;14.300;2023-07-09T07:09:35;101464.22;;;24.85;45.37
17593;BME280;8915;51.760;14.300;2023-07-09T07:12:02;101462.97;;;24.97;46.00
17593;BME280;8915;51.760;14.300;2023-07-09T07:14:29;101463.22;;;25.06;45.40
17593;BME280;8915;51.760;14.300;2023-07-09T07:16:56;101465.06;;;25.16;45.34
17593;BME280;8915;51.760;14.300;2023-07-09T07:19:24;101461.50;;;25.26;45.36
17593;BME280;8915;51.760;14.300;2023-07-09T07:21:51;101467.22;;;25.35;43.16
17593;BME280;8915;51.760;14.300;2023-07-09T07:24:17;101463.63;;;25.45;44.16
17593;BME280;8915;51.760;14.300;2023-07-09T07:26:43;101462.72;;;25.55;42.00
17593;BME280;8915;51.760;14.300;2023-07-09T07:29:10;101457.59;;;25.64;42.92
17593;BME280;8915;51.760;14.300;2023-07-09T07:31:36;101465.56;;;25.74;43.89
17593;BME280;8915;51.760;14.300;2023-07-09T07:34:03;101472.41;;;25.82;43.53
17593;BME280;8915;51.760;14.300;2023-07-09T07:36:30;101468.06;;;25.88;43.57
17593;BME280;8915;51.760;14.300;2023-07-09T07:38:57;101473.78;;;25.97;42.94
17593;BME280;8915;51.760;14.300;2023-07-09T07:41:23;101471.31;;;26.06;41.02
17593;BME280;8915;51.760;14.300;2023-07-09T07:43:49;101467.34;;;26.14;40.51
17593;BME280;8915;51.760;14.300;2023-07-09T07:46:16;101476.84;;;26.26;41.00
17593;BME280;8915;51.760;14.300;2023-07-09T07:48:42;101478.25;;;26.34;40.61
17593;BME280;8915;51.760;14.300;2023-07-09T07:51:09;101467.69;;;26.43;41.04
17593;BME280;8915;51.760;14.300;2023-07-09T07:53:37;101471.75;;;26.54;41.87
17593;BME280;8915;51.760;14.300;2023-07-09T07:56:04;101469.28;;;26.63;40.48
17593;BME280;8915;51.760;14.300;2023-07-09T07:58:31;101471.44;;;26.75;39.73
17593;BME280;8915;51.760;14.300;2023-07-09T08:00:58;101473.94;;;26.86;39.16
17593;BME280;8915;51.760;14.300;2023-07-09T08:03:24;101470.63;;;26.98;41.25
17593;BME280;8915;51.760;14.300;2023-07-09T08:05:51;101468.50;;;27.09;41.09
17593;BME280;8915;51.760;14.300;2023-07-09T08:08:18;101472.53;;;27.20;41.46
17593;BME280;8915;51.760;14.300;2023-07-09T08:10:46;101474.66;;;27.32;40.42
17593;BME280;8915;51.760;14.300;2023-07-09T08:13:12;101464.34;;;27.43;37.90
17593;BME280;8915;51.760;14.300;2023-07-09T08:15:38;101466.41;;;27.55;38.72
17593;BME280;8915;51.760;14.300;2023-07-09T08:18:05;101467.03;;;27.63;38.72
17593;BME280;8915;51.760;14.300;2023-07-09T08:20:31;101465.28;;;27.72;38.35
17593;BME280;8915;51.760;14.300;2023-07-09T08:22:59;101465.88;;;27.83;39.82
17593;BME280;8915;51.760;14.300;2023-07-09T08:25:25;101469.09;;;27.94;38.34
17593;BME280;8915;51.760;14.300;2023-07-09T08:27:53;101463.84;;;28.03;38.84
17593;BME280;8915;51.760;14.300;2023-07-09T08:30:19;101465.53;;;28.13;37.91
17593;BME280;8915;51.760;14.300;2023-07-09T08:32:46;101460.28;;;28.22;36.04
17593;BME280;8915;51.760;14.300;2023-07-09T08:35:12;101461.66;;;28.30;34.03
17593;BME280;8915;51.760;14.300;2023-07-09T08:37:40;101456.06;;;28.37;34.74
17593;BME280;8915;51.760;14.300;2023-07-09T08:40:10;101462.44;;;28.47;33.38
17593;BME280;8915;51.760;14.300;2023-07-09T08:42:42;101452.50;;;28.56;34.72
17593;BME280;8915;51.760;14.300;2023-07-09T08:45:23;101456.91;;;28.66;36.30
17593;BME280;8915;51.760;14.300;2023-07-09T08:47:56;101458.50;;;28.80;35.60
17593;BME280;8915;51.760;14.300;2023-07-09T08:50:27;101461.69;;;28.91;33.86
17593;BME280;8915;51.760;14.300;2023-07-09T08:52:58;101459.06;;;29.03;32.79
17593;BME280;8915;51.760;14.300;2023-07-09T08:55:28;101460.72;;;29.13;31.80
17593;BME280;8915;51.760;14.300;2023-07-09T08:57:57;101460.09;;;29.22;34.48
17593;BME280;8915;51.760;14.300;2023-07-09T09:00:29;101461.41;;;29.30;32.28
17593;BME280;8915;51.760;14.300;2023-07-09T09:02:58;101463.06;;;29.40;31.77
17593;BME280;8915;51.760;14.300;2023-07-09T09:05:26;101457.78;;;29.49;31.14
17593;BME280;8915;51.760;14.300;2023-07-09T09:07:58;101458.03;;;29.54;31.62
17593;BME280;8915;51.760;14.300;2023-07-09T09:10:32;101459.03;;;29.60;31.89
17593;BME280;8915;51.760;14.300;2023-07-09T09:13:05;101452.06;;;29.72;27.50
17593;BME280;8915;51.760;14.300;2023-07-09T09:15:37;101461.53;;;29.80;28.45
17593;BME280;8915;51.760;14.300;2023-07-09T09:18:20;101455.78;;;29.90;28.92
17593;BME280;8915;51.760;14.300;2023-07-09T09:20:55;101448.59;;;29.96;26.83
17593;BME280;8915;51.760;14.300;2023-07-09T09:23:31;101462.63;;;30.07;29.88
17593;BME280;8915;51.760;14.300;2023-07-09T09:26:11;101462.78;;;30.16;27.00
17593;BME280;8915;51.760;14.300;2023-07-09T09:28:42;101458.94;;;30.26;27.03
17593;BME280;8915;51.760;14.300;2023-07-09T09:31:11;101464.03;;;30.37;28.03
17593;BME280;8915;51.760;14.300;2023-07-09T09:33:41;101459.44;;;30.46;27.09
17593;BME280;8915;51.760;14.300;2023-07-09T09:36:14;101457.22;;;30.54;28.24
17593;BME280;8915;51.760;14.300;2023-07-09T09:38:42;101451.13;;;30.62;26.69
17593;BME280;8915;51.760;14.300;2023-07-09T09:41:14;101447.88;;;30.67;27.32
17593;BME280;8915;51.760;14.300;2023-07-09T09:43:43;101457.44;;;30.72;26.55
17593;BME280;8915;51.760;14.300;2023-07-09T09:46:19;101452.50;;;30.79;27.60
17593;BME280;8915;51.760;14.300;2023-07-09T09:48:48;101455.88;;;30.83;26.95
17593;BME280;8915;51.760;14.300;2023-07-09T09:51:20;101456.38;;;30.91;27.04
17593;BME280;8915;51.760;14.300;2023-07-09T09:53:49;101459.63;;;30.98;27.19
17593;BME280;8915;51.760;14.300;2023-07-09T09:56:18;101447.06;;;31.01;26.96
17593;BME280;8915;51.760;14.300;2023-07-09T09:58:46;101457.28;;;31.09;27.06
17593;BME280;8915;51.760;14.300;2023-07-09T10:01:26;101449.28;;;31.15;26.78
17593;BME280;8915;51.760;14.300;2023-07-09T10:03:56;101452.00;;;31.15;26.76
17593;BME280;8915;51.760;14.300;2023-07-09T10:06:34;101453.41;;;31.19;27.46
17593;BME280;8915;51.760;14.300;2023-07-09T10:09:07;101452.28;;;31.29;26.20
17593;BME280;8915;51.760;14.300;2023-07-09T10:11:46;101457.94;;;31.35;25.21
17593;BME280;8915;51.760;14.300;2023-07-09T10:14:28;101462.38;;;31.41;27.27
17593;BME280;8915;51.760;14.300;2023-07-09T10:17:04;101446.16;;;31.47;27.58
17593;BME280;8915;51.760;14.300;2023-07-09T10:19:40;101449.50;;;31.51;27.79
17593;BME280;8915;51.760;14.300;2023-07-09T10:22:21;101440.88;;;31.52;27.30
17593;BME280;8915;51.760;14.300;2023-07-09T10:24:56;101457.91;;;31.56;26.64
17593;BME280;8915;51.760;14.300;2023-07-09T10:27:32;101452.00;;;31.58;27.01
17593;BME280;8915;51.760;14.300;2023-07-09T10:30:19;101443.53;;;31.65;26.52
17593;BME280;8915;51.760;14.300;2023-07-09T10:33:01;101453.09;;;31.69;26.16
17593;BME280;8915;51.760;14.300;2023-07-09T10:35:38;101439.66;;;31.75;27.11
17593;BME280;8915;51.760;14.300;2023-07-09T10:38:30;101431.63;;;31.80;26.67
17593;BME280;8915;51.760;14.300;2023-07-09T10:41:02;101443.94;;;31.85;27.18
17593;BME280;8915;51.760;14.300;2023-07-09T10:43:36;101444.09;;;31.90;27.05
17593;BME280;8915;51.760;14.300;2023-07-09T10:46:11;101446.69;;;31.94;25.55
17593;BME280;8915;51.760;14.300;2023-07-09T10:48:41;101443.84;;;31.97;24.17
17593;BME280;8915;51.760;14.300;2023-07-09T10:51:17;101442.47;;;32.02;26.21
17593;BME280;8915;51.760;14.300;2023-07-09T10:53:48;101443.09;;;32.06;25.34
17593;BME280;8915;51.760;14.300;2023-07-09T10:56:19;101439.44;;;32.09;26.03
17593;BME280;8915;51.760;14.300;2023-07-09T10:58:53;101440.06;;;32.13;26.77
17593;BME280;8915;51.760;14.300;2023-07-09T11:01:27;101427.91;;;32.14;26.28
17593;BME280;8915;51.760;14.300;2023-07-09T11:04:00;101428.88;;;32.20;26.76
17593;BME280;8915;51.760;14.300;2023-07-09T11:06:32;101427.22;;;32.22;25.89
17593;BME280;8915;51.760;14.300;2023-07-09T11:09:00;101429.81;;;32.26;25.90
17593;BME280;8915;51.760;14.300;2023-07-09T11:11:32;101427.66;;;32.30;23.91
17593;BME280;8915;51.760;14.300;2023-07-09T11:14:04;101423.88;;;32.27;24.75
17593;BME280;8915;51.760;14.300;2023-07-09T11:16:37;101429.97;;;32.31;25.25
17593;BME280;8915;51.760;14.300;2023-07-09T11:19:06;101419.94;;;32.37;25.56
17593;BME280;8915;51.760;14.300;2023-07-09T11:21:45;101425.28;;;32.41;24.41
17593;BME280;8915;51.760;14.300;2023-07-09T11:24:29;101415.84;;;32.42;24.53
17593;BME280;8915;51.760;14.300;2023-07-09T11:26:56;101421.94;;;32.37;23.64
17593;BME280;8915;51.760;14.300;2023-07-09T11:29:25;101424.66;;;32.37;23.59
17593;BME280;8915;51.760;14.300;2023-07-09T11:31:52;101415.09;;;32.41;23.51
17593;BME280;8915;51.760;14.300;2023-07-09T11:34:20;101411.00;;;32.46;25.92
17593;BME280;8915;51.760;14.300;2023-07-09T11:36:57;101410.84;;;32.49;24.81
17593;BME280;8915;51.760;14.300;2023-07-09T11:39:28;101413.88;;;32.51;24.04
17593;BME280;8915;51.760;14.300;2023-07-09T11:41:55;101408.25;;;32.55;23.40
17593;BME280;8915;51.760;14.300;2023-07-09T11:44:25;101397.63;;;32.57;24.57
17593;BME280;8915;51.760;14.300;2023-07-09T11:47:13;101406.13;;;32.59;24.61
17593;BME280;8915;51.760;14.300;2023-07-09T11:49:49;101393.53;;;32.61;24.30
17593;BME280;8915;51.760;14.300;2023-07-09T11:52:22;101394.59;;;32.64;24.50
17593;BME280;8915;51.760;14.300;2023-07-09T11:54:51;101397.94;;;32.68;25.13
17593;BME280;8915;51.760;14.300;2023-07-09T11:57:17;101390.19;;;32.75;24.74
17593;BME280;8915;51.760;14.300;2023-07-09T11:59:44;101388.19;;;32.76;23.49
17593;BME280;8915;51.760;14.300;2023-07-09T12:02:16;101384.56;;;32.79;24.88
17593;BME280;8915;51.760;14.300;2023-07-09T12:04:48;101384.56;;;32.88;25.04
17593;BME280;8915;51.760;14.300;2023-07-09T12:07:17;101381.78;;;32.97;25.83
17593;BME280;8915;51.760;14.300;2023-07-09T12:09:47;101377.25;;;33.03;25.39
17593;BME280;8915;51.760;14.300;2023-07-09T12:12:19;101383.28;;;33.07;24.66
17593;BME280;8915;51.760;14.300;2023-07-09T12:14:47;101382.22;;;33.13;23.90
17593;BME280;8915;51.760;14.300;2023-07-09T12:17:13;101378.56;;;33.16;24.77
17593;BME280;8915;51.760;14.300;2023-07-09T12:19:39;101379.16;;;33.20;24.90
17593;BME280;8915;51.760;14.300;2023-07-09T12:22:12;101370.03;;;33.23;24.10
17593;BME280;8915;51.760;14.300;2023-07-09T12:24:42;101365.88;;;33.28;25.00
17593;BME280;8915;51.760;14.300;2023-07-09T12:27:19;101364.09;;;33.34;24.73
17593;BME280;8915;51.760;14.300;2023-07-09T12:29:46;101363.63;;;33.35;24.62
17593;BME280;8915;51.760;14.300;2023-07-09T12:32:14;101360.41;;;33.37;24.27
17593;BME280;8915;51.760;14.300;2023-07-09T12:34:41;101362.97;;;33.40;24.88
17593;BME280;8915;51.760;14.300;2023-07-09T12:37:13;101357.34;;;33.44;24.44
17593;BME280;8915;51.760;14.300;2023-07-09T12:39:40;101353.69;;;33.47;24.77
17593;BME280;8915;51.760;14.300;2023-07-09T12:42:14;101346.22;;;33.47;24.27
17593;BME280;8915;51.760;14.300;2023-07-09T12:44:43;101352.78;;;33.50;24.70
17593;BME280;8915;51.760;14.300;2023-07-09T12:47:13;101349.09;;;33.53;24.92
17593;BME280;8915;51.760;14.300;2023-07-09T12:49:41;101353.19;;;33.57;24.00
17593;BME280;8915;51.760;14.300;2023-07-09T12:52:14;101348.59;;;33.63;24.56
17593;BME280;8915;51.760;14.300;2023-07-09T12:54:40;101346.44;;;33.67;25.57
17593;BME280;8915;51.760;14.300;2023-07-09T12:57:13;101347.31;;;33.73;25.36
17593;BME280;8915;51.760;14.300;2023-07-09T12:59:42;101347.13;;;33.77;23.82